Fascination — C6FM9 — position and weather

sailwx.info

Track history (hours):
 
Tides and Currents Weather Stations Pressure Air Temp Water Temp Dewpoint Dewpoint Depression Visibility Wind Speed Wind Dir Waves Ship Positions

Fascination

Operator: Carnival Cruise Lines

Last reported at 2018-Feb-22 11:05 UTC. Time now 2018-Feb-22 15:01 UTC.
Position N 14°02' W 061°01'.

Type: Ship. MMSI: 309682000.

Date/timePositionNaut miles runAvg speedWind from/ knotsBaromVisibWave heightAir tempDewpointWater temp
2018-Feb-22 11:05N 14°02' W 061°01'0 4.2
2018-Feb-22 11:00N 14°02' W 061°02'22 0.7
2018-Feb-21 03:24N 14°08' W 060°39'410.2
2018-Feb-21 03:00N 14°10' W 060°42'510.2
2018-Feb-21 02:30N 14°13' W 060°47'511.0
2018-Feb-21 02:01N 14°13' W 060°52'510.9
2018-Feb-21 01:31N 14°14' W 060°58'611.3
2018-Feb-21 01:00N 14°14' W 061°04'510.8
2018-Feb-21 00:30N 14°15' W 061°09'2311.0
2018-Feb-20 22:25N 14°31' W 061°26'511.2
2018-Feb-20 21:56N 14°35' W 061°30'  
Track history (hours):
 
Tides and Currents Weather Stations Pressure Air Temp Water Temp Dewpoint Dewpoint Depression Visibility Wind Speed Wind Dir Waves Ship Positions

Fascination

Operator: Carnival Cruise Lines

Last reported at 2018-Feb-22 11:05 UTC. Time now 2018-Feb-22 15:01 UTC.
Position N 14°02' W 061°01'.

Type: Ship. MMSI: 309682000.

Date/timePositionNaut miles runAvg speedWind from/ knotsBaromVisibWave heightAir tempDewpointWater temp
2018-Feb-22 11:05N 14°02' W 061°01'0 4.2
2018-Feb-22 11:00N 14°02' W 061°02'22 0.7
2018-Feb-21 03:24N 14°08' W 060°39'410.2
2018-Feb-21 03:00N 14°10' W 060°42'510.2
2018-Feb-21 02:30N 14°13' W 060°47'511.0
2018-Feb-21 02:01N 14°13' W 060°52'510.9
2018-Feb-21 01:31N 14°14' W 060°58'611.3
2018-Feb-21 01:00N 14°14' W 061°04'510.8
2018-Feb-21 00:30N 14°15' W 061°09'2311.0
2018-Feb-20 22:25N 14°31' W 061°26'511.2
2018-Feb-20 21:56N 14°35' W 061°30'  

Dump ship's entire track history